createdAt,value
2023-01-21T00:01:10.824Z,1.10
2023-01-21T00:03:38.667Z,1.10
2023-01-21T00:06:06.936Z,2.17
2023-01-21T00:08:34.754Z,1.27
2023-01-21T00:11:06.403Z,1.10
2023-01-21T00:13:36.503Z,1.00
2023-01-21T00:16:04.595Z,1.20
2023-01-21T00:18:32.784Z,1.40
2023-01-21T00:21:00.518Z,1.43
2023-01-21T00:23:28.419Z,1.30
2023-01-21T00:25:58.929Z,1.23
2023-01-21T00:28:29.323Z,1.07
2023-01-21T00:30:59.644Z,1.57
2023-01-21T00:33:27.721Z,1.30
2023-01-21T00:36:02.688Z,1.73
2023-01-21T00:38:30.972Z,2.17
2023-01-21T00:41:02.661Z,0.97
2023-01-21T00:43:32.618Z,0.70
2023-01-21T00:46:01.740Z,1.63
2023-01-21T00:48:29.661Z,1.57
2023-01-21T00:51:02.779Z,0.80
2023-01-21T00:53:31.876Z,0.70
2023-01-21T00:56:01.154Z,0.90
2023-01-21T00:58:29.198Z,0.70
2023-01-21T01:01:03.633Z,0.77
2023-01-21T01:03:31.593Z,0.70
2023-01-21T01:06:03.307Z,0.60
2023-01-21T01:08:30.943Z,1.07
2023-01-21T01:10:58.665Z,0.70
2023-01-21T01:13:27.610Z,1.03
2023-01-21T01:15:56.163Z,1.17
2023-01-21T01:18:25.381Z,0.87
2023-01-21T01:20:53.327Z,0.60
2023-01-21T01:23:20.982Z,0.80
2023-01-21T01:25:55.866Z,0.83
2023-01-21T01:28:23.700Z,0.50
2023-01-21T01:30:51.532Z,0.70
2023-01-21T01:33:20.264Z,0.60
2023-01-21T01:35:49.573Z,0.73
2023-01-21T01:38:20.049Z,0.77
2023-01-21T01:40:48.329Z,0.70
2023-01-21T01:43:18.299Z,0.80
2023-01-21T01:45:46.320Z,1.03
2023-01-21T01:48:16.337Z,0.70
2023-01-21T01:50:44.182Z,0.80
2023-01-21T01:53:13.646Z,0.70
2023-01-21T01:58:30.786Z,1.93
2023-01-21T02:00:58.709Z,1.27
2023-01-21T02:03:44.268Z,0.77
2023-01-21T02:06:12.042Z,0.60
2023-01-21T02:08:41.545Z,0.87
2023-01-21T02:11:12.626Z,0.70
2023-01-21T02:13:41.674Z,1.30
2023-01-21T02:16:35.493Z,3.43
2023-01-21T02:19:20.233Z,2.67
2023-01-21T02:22:06.580Z,2.93
2023-01-21T02:25:10.069Z,2.83
2023-01-21T02:27:43.756Z,2.37
2023-01-21T02:30:38.898Z,1.77
2023-01-21T02:33:28.053Z,1.90
2023-01-21T02:36:02.956Z,1.37
2023-01-21T02:38:33.686Z,1.13
2023-01-21T02:41:06.813Z,0.83
2023-01-21T02:43:38.210Z,1.03
2023-01-21T02:46:11.075Z,1.00
2023-01-21T02:48:42.856Z,0.70
2023-01-21T02:51:13.135Z,0.80
2023-01-21T02:53:40.820Z,1.23
2023-01-21T02:56:12.237Z,1.00
2023-01-21T02:58:42.583Z,1.40
2023-01-21T03:01:16.080Z,1.67
2023-01-21T03:03:56.079Z,1.20
2023-01-21T03:06:42.794Z,1.37
2023-01-21T03:09:19.006Z,1.40
2023-01-21T03:12:01.144Z,1.53
2023-01-21T03:14:49.602Z,1.80
2023-01-21T03:17:23.759Z,2.23
2023-01-21T03:19:56.518Z,1.70
2023-01-21T03:22:27.638Z,1.40
2023-01-21T03:24:57.276Z,1.50
2023-01-21T03:27:26.973Z,1.10
2023-01-21T03:29:58.168Z,1.10
2023-01-21T03:32:26.806Z,0.80
2023-01-21T03:34:56.858Z,0.70
2023-01-21T03:37:29.650Z,0.60
2023-01-21T03:40:04.581Z,1.33
2023-01-21T03:42:32.431Z,0.50
2023-01-21T03:45:00.675Z,1.03
2023-01-21T03:47:32.588Z,0.60
2023-01-21T03:50:04.305Z,0.60
2023-01-21T03:52:32.203Z,1.07
2023-01-21T03:54:59.980Z,0.53
2023-01-21T03:57:27.848Z,0.83
2023-01-21T03:59:56.216Z,1.20
2023-01-21T04:02:24.047Z,0.97
2023-01-21T04:04:53.123Z,1.00
2023-01-21T04:07:22.288Z,1.33
2023-01-21T04:09:50.353Z,0.83
2023-01-21T04:12:18.611Z,0.77
2023-01-21T04:14:46.318Z,1.10
2023-01-21T04:17:16.804Z,1.07
2023-01-21T04:19:44.510Z,0.97
2023-01-21T04:22:12.208Z,1.10
2023-01-21T04:24:41.215Z,0.93
2023-01-21T04:27:09.000Z,1.00
2023-01-21T04:29:36.680Z,1.00
2023-01-21T04:32:04.611Z,1.07
2023-01-21T04:34:32.303Z,1.07
2023-01-21T04:37:00.018Z,2.10
2023-01-21T04:39:27.688Z,1.53
2023-01-21T04:41:56.805Z,1.23
2023-01-21T04:44:24.494Z,1.37
2023-01-21T04:46:52.175Z,1.40
2023-01-21T04:49:19.835Z,2.03
2023-01-21T04:51:47.481Z,1.80
2023-01-21T04:54:15.155Z,2.70
2023-01-21T04:56:42.797Z,2.33
2023-01-21T04:59:11.896Z,2.57
2023-01-21T05:01:39.617Z,2.50
2023-01-21T05:04:07.325Z,3.13
2023-01-21T05:06:34.978Z,3.00
2023-01-21T05:09:02.635Z,3.13
2023-01-21T05:11:30.408Z,3.77
2023-01-21T05:13:58.043Z,3.20
2023-01-21T05:16:27.200Z,3.40
2023-01-21T05:18:56.177Z,4.30
2023-01-21T05:21:23.899Z,4.60
2023-01-21T05:23:51.567Z,4.27
2023-01-21T05:26:20.483Z,3.40
2023-01-21T05:28:48.173Z,3.80
2023-01-21T05:31:16.047Z,3.13
2023-01-21T05:33:47.099Z,3.17
2023-01-21T05:36:14.873Z,3.30
2023-01-21T05:38:42.570Z,3.87
2023-01-21T05:41:10.226Z,3.00
2023-01-21T05:43:37.880Z,2.90
2023-01-21T05:46:05.940Z,3.60
2023-01-21T05:48:35.202Z,2.43
2023-01-21T05:51:04.437Z,2.50
2023-01-21T05:53:32.694Z,2.53
2023-01-21T05:56:00.367Z,2.17
2023-01-21T05:58:28.683Z,1.67
2023-01-21T06:00:58.983Z,1.83
2023-01-21T06:03:27.183Z,1.53
2023-01-21T06:05:54.910Z,1.40
2023-01-21T06:08:24.271Z,2.40
2023-01-21T06:10:52.024Z,1.40
2023-01-21T06:13:19.693Z,1.50
2023-01-21T06:15:47.404Z,1.10
2023-01-21T06:18:15.374Z,1.23
2023-01-21T06:20:44.590Z,1.40
2023-01-21T06:23:13.229Z,1.57
2023-01-21T06:25:43.585Z,1.30
2023-01-21T06:28:12.630Z,2.13
2023-01-21T06:30:40.864Z,1.30
2023-01-21T06:33:08.662Z,1.33
2023-01-21T06:35:37.030Z,1.30
2023-01-21T06:38:05.334Z,1.53
2023-01-21T06:40:32.997Z,1.53
2023-01-21T06:43:02.024Z,1.63
2023-01-21T06:45:29.922Z,1.17
2023-01-21T06:47:57.602Z,1.43
2023-01-21T06:50:25.367Z,1.30
2023-01-21T06:52:53.088Z,2.30
2023-01-21T06:55:20.819Z,2.00
2023-01-21T06:57:48.488Z,2.23
2023-01-21T07:00:19.638Z,2.23
2023-01-21T07:02:47.544Z,1.80
2023-01-21T07:05:16.282Z,1.80
2023-01-21T07:07:44.192Z,2.07
2023-01-21T07:10:12.664Z,2.73
2023-01-21T07:12:40.421Z,2.83
2023-01-21T07:15:09.492Z,2.40
2023-01-21T07:17:38.505Z,2.20
2023-01-21T07:20:07.183Z,3.97
2023-01-21T07:22:35.207Z,2.20
2023-01-21T07:25:02.878Z,2.80
2023-01-21T07:27:30.646Z,2.23
2023-01-21T07:29:58.318Z,2.43
2023-01-21T07:32:26.198Z,2.30
2023-01-21T07:34:55.267Z,2.80
2023-01-21T07:37:22.959Z,2.50
2023-01-21T07:39:51.497Z,3.17
2023-01-21T07:42:20.272Z,10.87
2023-01-21T07:44:49.397Z,11.90
2023-01-21T07:47:17.094Z,9.90
2023-01-21T07:49:44.736Z,6.70
2023-01-21T07:52:13.792Z,4.63
2023-01-21T07:54:42.563Z,5.37
2023-01-21T07:57:10.221Z,3.97
2023-01-21T07:59:37.930Z,5.17
2023-01-21T08:02:05.673Z,4.97
2023-01-21T08:04:33.383Z,4.53
2023-01-21T08:07:06.848Z,5.10
2023-01-21T08:09:36.621Z,4.47
2023-01-21T08:12:05.026Z,4.50
2023-01-21T08:14:33.005Z,4.20
2023-01-21T08:17:01.515Z,4.83
2023-01-21T08:19:29.153Z,5.27
2023-01-21T08:21:56.904Z,4.27
2023-01-21T08:24:24.537Z,5.03
2023-01-21T08:26:53.630Z,5.73
2023-01-21T08:29:21.270Z,4.67
2023-01-21T08:31:49.045Z,4.77
2023-01-21T08:34:17.052Z,4.67
2023-01-21T08:36:44.756Z,4.80
2023-01-21T08:39:13.719Z,5.10
2023-01-21T08:41:41.428Z,4.87
2023-01-21T08:44:10.777Z,4.73
2023-01-21T08:46:38.481Z,8.47
2023-01-21T08:49:06.429Z,6.67
2023-01-21T08:51:34.142Z,7.77
2023-01-21T08:54:01.940Z,6.63
2023-01-21T08:56:34.196Z,6.03
2023-01-21T08:59:02.732Z,4.57
2023-01-21T09:01:31.835Z,4.00
2023-01-21T09:04:01.024Z,5.50
2023-01-21T09:06:30.098Z,4.03
2023-01-21T09:08:58.337Z,4.67
2023-01-21T09:11:26.292Z,5.43
2023-01-21T09:13:54.057Z,4.90
2023-01-21T09:16:23.107Z,5.47
2023-01-21T09:18:52.201Z,5.20
2023-01-21T09:21:19.863Z,4.83
2023-01-21T09:23:47.573Z,6.13
2023-01-21T09:26:16.958Z,4.57
2023-01-21T09:28:46.352Z,5.07
2023-01-21T09:31:15.782Z,4.77
2023-01-21T09:33:45.751Z,5.30
2023-01-21T09:36:19.087Z,5.07
2023-01-21T09:38:47.892Z,5.13
2023-01-21T09:41:22.970Z,7.27
2023-01-21T09:43:55.037Z,8.27
2023-01-21T09:46:31.739Z,8.30
2023-01-21T09:48:59.665Z,7.23
2023-01-21T09:51:39.421Z,7.47
2023-01-21T09:54:11.805Z,7.43
2023-01-21T09:56:44.194Z,6.93
2023-01-21T09:59:16.506Z,6.33
2023-01-21T10:01:44.499Z,7.50
2023-01-21T10:04:35.292Z,7.10
2023-01-21T10:07:08.444Z,6.87
2023-01-21T10:09:47.764Z,6.53
2023-01-21T10:12:30.695Z,6.00
2023-01-21T10:15:10.310Z,7.47
2023-01-21T10:17:44.056Z,6.50
2023-01-21T10:20:14.876Z,5.37
2023-01-21T10:22:47.243Z,5.93
2023-01-21T10:25:20.524Z,5.27
2023-01-21T10:27:48.289Z,5.20
2023-01-21T10:30:23.645Z,4.80
2023-01-21T10:32:52.624Z,5.13
2023-01-21T10:35:35.178Z,4.00
2023-01-21T10:38:09.156Z,4.20
2023-01-21T10:40:44.269Z,5.60
2023-01-21T10:43:20.265Z,4.87
2023-01-21T10:45:55.949Z,5.17
2023-01-21T10:48:30.173Z,5.13
2023-01-21T10:51:02.081Z,3.97
2023-01-21T10:53:35.130Z,4.07
2023-01-21T10:56:10.331Z,4.73
2023-01-21T10:58:39.641Z,4.43
2023-01-21T11:01:09.247Z,5.07
2023-01-21T11:03:41.238Z,6.50
2023-01-21T11:06:12.396Z,10.47
2023-01-21T11:08:44.908Z,9.57
2023-01-21T11:11:13.723Z,8.50
2023-01-21T11:13:41.975Z,7.27
2023-01-21T11:16:10.165Z,7.00
2023-01-21T11:18:39.365Z,7.20
2023-01-21T11:21:15.942Z,6.80
2023-01-21T11:23:54.049Z,6.47
2023-01-21T11:26:24.954Z,6.77
2023-01-21T11:29:07.453Z,4.63
2023-01-21T11:31:35.724Z,5.00
2023-01-21T11:34:07.466Z,4.90
2023-01-21T11:36:35.449Z,4.30
2023-01-21T11:39:06.122Z,4.47
2023-01-21T11:41:34.556Z,4.17
2023-01-21T11:44:17.974Z,3.70
2023-01-21T11:46:45.877Z,3.63
2023-01-21T11:49:34.562Z,4.40
2023-01-21T11:52:22.925Z,3.20
2023-01-21T11:54:51.960Z,3.43
2023-01-21T11:57:30.351Z,4.00
2023-01-21T12:00:02.165Z,3.43
2023-01-21T12:02:32.102Z,3.60
2023-01-21T12:05:01.912Z,3.07
2023-01-21T12:07:31.528Z,3.70
2023-01-21T12:10:08.568Z,3.30
2023-01-21T12:12:46.551Z,3.10
2023-01-21T12:15:26.229Z,3.70
2023-01-21T12:17:57.832Z,3.00
2023-01-21T12:20:32.260Z,3.47
2023-01-21T12:23:16.537Z,4.03
2023-01-21T12:25:49.591Z,4.47
2023-01-21T12:28:31.155Z,3.97
2023-01-21T12:31:07.788Z,3.87
2023-01-21T12:33:41.506Z,4.33
2023-01-21T12:36:12.810Z,5.73
2023-01-21T12:38:43.821Z,5.20
2023-01-21T12:41:15.091Z,4.30
2023-01-21T12:43:44.861Z,3.67
2023-01-21T12:46:21.306Z,4.67
2023-01-21T12:48:53.579Z,2.57
2023-01-21T12:51:24.765Z,3.27
2023-01-21T12:53:56.899Z,2.73
2023-01-21T12:56:40.646Z,2.63
2023-01-21T12:59:14.592Z,2.40
2023-01-21T13:01:47.765Z,2.60
2023-01-21T13:04:31.639Z,2.63
2023-01-21T13:07:03.080Z,2.90
2023-01-21T13:09:36.105Z,2.63
2023-01-21T13:12:08.829Z,2.10
2023-01-21T13:14:40.875Z,2.63
2023-01-21T13:17:14.551Z,2.10
2023-01-21T13:19:42.260Z,1.97
2023-01-21T13:22:17.714Z,2.00
2023-01-21T13:25:09.387Z,2.10
2023-01-21T13:27:44.226Z,2.00
2023-01-21T13:30:20.753Z,2.30
2023-01-21T13:32:52.526Z,1.70
2023-01-21T13:35:29.652Z,3.13
2023-01-21T13:38:05.894Z,1.60
2023-01-21T13:40:40.747Z,1.80
2023-01-21T13:43:19.311Z,1.93
2023-01-21T13:45:57.272Z,2.37
2023-01-21T13:48:35.535Z,1.63
2023-01-21T13:51:18.616Z,1.80
2023-01-21T13:53:59.764Z,1.70
2023-01-21T13:56:34.904Z,1.80
2023-01-21T13:59:07.597Z,1.70
2023-01-21T14:01:39.594Z,1.80
2023-01-21T14:04:12.798Z,1.97
2023-01-21T14:06:43.274Z,1.70
2023-01-21T14:09:15.443Z,2.17
2023-01-21T14:11:45.854Z,1.97
2023-01-21T14:14:36.087Z,2.40
2023-01-21T14:17:45.941Z,1.90
2023-01-21T14:20:33.343Z,1.90
2023-01-21T14:23:14.781Z,2.53
2023-01-21T14:25:54.545Z,2.03
2023-01-21T14:28:28.592Z,2.00
2023-01-21T14:31:04.962Z,2.70
2023-01-21T14:33:39.787Z,3.10
2023-01-21T14:36:10.110Z,3.17
2023-01-21T14:38:43.526Z,3.40
2023-01-21T14:41:12.357Z,3.90
2023-01-21T14:43:52.032Z,4.13
2023-01-21T14:46:33.870Z,6.23
2023-01-21T14:49:06.381Z,5.77
2023-01-21T14:51:36.303Z,6.07
2023-01-21T14:54:05.675Z,5.97
2023-01-21T14:56:33.924Z,5.90
2023-01-21T14:59:04.118Z,5.00
2023-01-21T15:01:41.237Z,3.93
2023-01-21T15:04:23.971Z,4.00
2023-01-21T15:06:53.903Z,4.40
2023-01-21T15:09:24.903Z,4.63
2023-01-21T15:11:54.515Z,4.97
2023-01-21T15:14:24.237Z,3.67
2023-01-21T15:16:53.527Z,3.50
2023-01-21T15:19:27.492Z,3.30
2023-01-21T15:22:18.620Z,3.20
2023-01-21T15:25:20.439Z,4.13
2023-01-21T15:28:27.857Z,4.70
2023-01-21T15:31:00.593Z,3.97
2023-01-21T15:33:30.352Z,4.37
2023-01-21T15:35:59.434Z,4.40
2023-01-21T15:38:27.331Z,5.00
2023-01-21T15:40:56.466Z,5.43
2023-01-21T15:43:27.562Z,4.87
2023-01-21T15:46:03.866Z,5.67
2023-01-21T15:48:45.358Z,5.90
2023-01-21T15:51:21.517Z,6.97
2023-01-21T15:54:00.948Z,6.47
2023-01-21T15:56:38.114Z,5.87
2023-01-21T15:59:15.767Z,6.03
2023-01-21T16:01:43.969Z,5.17
2023-01-21T16:04:21.898Z,6.77
2023-01-21T16:06:58.827Z,5.73
2023-01-21T16:09:32.912Z,5.47
2023-01-21T16:12:10.415Z,5.97
2023-01-21T16:14:45.840Z,5.03
2023-01-21T16:17:18.995Z,5.73
2023-01-21T16:19:50.081Z,4.90
2023-01-21T16:22:21.504Z,7.23
2023-01-21T16:24:51.546Z,6.10
2023-01-21T16:27:21.505Z,5.93
2023-01-21T16:29:49.327Z,6.30
2023-01-21T16:32:18.171Z,5.53
2023-01-21T16:34:46.540Z,6.43
2023-01-21T16:37:18.473Z,5.53
2023-01-21T16:39:46.488Z,6.73
2023-01-21T16:42:24.940Z,6.63
2023-01-21T16:44:53.363Z,8.27
2023-01-21T16:47:24.964Z,6.50
2023-01-21T16:49:53.415Z,5.90
2023-01-21T16:52:24.429Z,6.57
2023-01-21T16:54:53.140Z,5.80
2023-01-21T16:57:31.788Z,5.80
2023-01-21T17:00:02.416Z,5.73
2023-01-21T17:02:31.836Z,6.13
2023-01-21T17:05:02.201Z,7.30
2023-01-21T17:07:32.814Z,7.10
2023-01-21T17:10:02.894Z,7.17
2023-01-21T17:12:30.995Z,7.37
2023-01-21T17:15:00.568Z,6.83
2023-01-21T17:17:31.673Z,9.13
2023-01-21T17:19:59.506Z,8.60
2023-01-21T17:22:29.153Z,8.53
2023-01-21T17:25:04.001Z,7.70
2023-01-21T17:27:32.417Z,8.40
2023-01-21T17:30:24.871Z,7.70
2023-01-21T17:32:56.699Z,11.33
2023-01-21T17:35:25.265Z,9.57
2023-01-21T17:37:54.833Z,10.47
2023-01-21T17:40:29.060Z,10.33
2023-01-21T17:42:57.494Z,10.67
2023-01-21T17:45:30.720Z,11.93
2023-01-21T17:48:09.475Z,11.13
2023-01-21T17:50:38.797Z,12.10
2023-01-21T17:53:10.475Z,15.30
2023-01-21T17:55:40.806Z,16.10
2023-01-21T17:58:36.924Z,16.70
2023-01-21T18:01:05.755Z,17.57
2023-01-21T18:03:33.480Z,17.80
2023-01-21T18:06:01.770Z,15.37
2023-01-21T18:08:29.468Z,17.13
2023-01-21T18:10:58.521Z,15.67
2023-01-21T18:13:26.527Z,15.50
2023-01-21T18:15:54.913Z,15.27
2023-01-21T18:18:25.490Z,15.07
2023-01-21T18:20:53.499Z,14.30
2023-01-21T18:23:21.692Z,12.47
2023-01-21T18:25:52.251Z,12.03
2023-01-21T18:28:23.577Z,12.47
2023-01-21T18:30:52.287Z,11.50
2023-01-21T18:33:20.440Z,9.93
2023-01-21T18:35:49.482Z,10.73
2023-01-21T18:38:22.295Z,10.60
2023-01-21T18:40:49.963Z,8.67
2023-01-21T18:43:18.458Z,8.67
2023-01-21T18:45:47.619Z,8.40
2023-01-21T18:48:16.784Z,8.20
2023-01-21T18:50:44.452Z,8.53
2023-01-21T18:53:13.566Z,8.43
2023-01-21T18:55:43.998Z,9.20
2023-01-21T18:58:13.284Z,8.50
2023-01-21T19:00:41.582Z,9.07
2023-01-21T19:03:14.167Z,9.07
2023-01-21T19:05:43.656Z,8.60
2023-01-21T19:08:13.493Z,10.43
2023-01-21T19:10:41.207Z,9.40
2023-01-21T19:13:09.335Z,9.83
2023-01-21T19:15:37.181Z,10.23
2023-01-21T19:18:12.101Z,12.53
2023-01-21T19:20:41.688Z,11.10
2023-01-21T19:23:12.436Z,9.13
2023-01-21T19:25:40.288Z,10.20
2023-01-21T19:28:10.372Z,10.67
2023-01-21T19:30:38.454Z,9.80
2023-01-21T19:33:06.577Z,6.87
2023-01-21T19:35:37.914Z,6.20
2023-01-21T19:38:08.281Z,7.87
2023-01-21T19:40:36.001Z,5.33
2023-01-21T19:43:03.763Z,5.80
2023-01-21T19:45:31.466Z,5.23
2023-01-21T19:47:59.124Z,4.20
2023-01-21T19:50:28.348Z,5.10
2023-01-21T19:52:57.365Z,4.40
2023-01-21T19:55:26.132Z,3.53
2023-01-21T19:57:56.825Z,3.77
2023-01-21T20:00:26.255Z,3.80
2023-01-21T20:02:54.042Z,4.33
2023-01-21T20:05:21.933Z,3.90
2023-01-21T20:07:51.181Z,3.73
2023-01-21T20:10:22.252Z,3.40
2023-01-21T20:12:49.910Z,4.10
2023-01-21T20:15:19.770Z,3.63
2023-01-21T20:17:50.091Z,4.07
2023-01-21T20:20:19.206Z,3.70
2023-01-21T20:22:47.297Z,3.43
2023-01-21T20:25:16.485Z,3.40
2023-01-21T20:27:49.904Z,3.07
2023-01-21T20:30:20.113Z,3.50
2023-01-21T20:32:49.284Z,3.50
2023-01-21T20:35:18.014Z,2.93
2023-01-21T20:37:48.788Z,3.20
2023-01-21T20:40:20.111Z,3.37
2023-01-21T20:42:49.819Z,3.47
2023-01-21T20:45:18.833Z,2.83
2023-01-21T20:47:50.658Z,3.40
2023-01-21T20:50:21.276Z,3.00
2023-01-21T20:52:50.182Z,3.10
2023-01-21T20:55:21.140Z,5.53
2023-01-21T20:57:50.579Z,4.70
2023-01-21T21:00:20.587Z,4.43
2023-01-21T21:02:49.050Z,3.13
2023-01-21T21:05:18.592Z,4.03
2023-01-21T21:07:46.625Z,3.30
2023-01-21T21:10:20.907Z,3.17
2023-01-21T21:12:50.320Z,3.10
2023-01-21T21:15:19.507Z,2.77
2023-01-21T21:17:48.011Z,3.07
2023-01-21T21:20:19.141Z,3.50
2023-01-21T21:22:47.035Z,3.37
2023-01-21T21:25:16.841Z,3.80
2023-01-21T21:27:45.086Z,3.70
2023-01-21T21:30:19.711Z,3.70
2023-01-21T21:32:47.446Z,3.90
2023-01-21T21:35:23.593Z,3.93
2023-01-21T21:37:52.050Z,4.63
2023-01-21T21:40:20.198Z,4.50
2023-01-21T21:43:05.242Z,4.53
2023-01-21T21:45:34.856Z,3.57
2023-01-21T21:48:20.079Z,4.50
2023-01-21T21:50:47.859Z,4.03
2023-01-21T21:53:15.597Z,3.60
2023-01-21T21:55:43.287Z,3.80
2023-01-21T21:58:11.013Z,3.40
2023-01-21T22:00:40.369Z,3.87
2023-01-21T22:03:08.060Z,4.43
2023-01-21T22:05:37.601Z,3.50
2023-01-21T22:08:05.395Z,3.50
2023-01-21T22:10:33.044Z,3.10
2023-01-21T22:13:00.727Z,3.10
2023-01-21T22:15:28.668Z,2.83
2023-01-21T22:17:58.193Z,2.43
2023-01-21T22:20:26.223Z,2.80
2023-01-21T22:22:53.929Z,2.30
2023-01-21T22:25:21.602Z,2.23
2023-01-21T22:27:49.536Z,2.33
2023-01-21T22:30:17.593Z,2.20
2023-01-21T22:32:45.244Z,1.97
2023-01-21T22:35:14.315Z,2.20
2023-01-21T22:37:42.034Z,2.00
2023-01-21T22:40:10.972Z,2.13
2023-01-21T22:42:38.704Z,2.30
2023-01-21T22:45:07.264Z,1.83
2023-01-21T22:47:35.711Z,2.10
2023-01-21T22:50:03.611Z,2.00
2023-01-21T22:52:32.605Z,2.30
2023-01-21T22:55:00.357Z,2.23
2023-01-21T22:57:28.106Z,3.57
2023-01-21T22:59:55.864Z,2.87
2023-01-21T23:02:25.401Z,3.00
2023-01-21T23:04:53.527Z,3.03
2023-01-21T23:07:21.239Z,3.10
2023-01-21T23:09:50.569Z,2.73
2023-01-21T23:12:19.595Z,2.70
2023-01-21T23:14:47.453Z,2.60
2023-01-21T23:17:16.644Z,2.40
2023-01-21T23:19:44.452Z,3.07
2023-01-21T23:22:14.500Z,2.53
2023-01-21T23:24:42.154Z,2.47
2023-01-21T23:27:11.151Z,2.20
2023-01-21T23:29:38.825Z,2.30
2023-01-21T23:32:06.969Z,2.20
2023-01-21T23:34:34.667Z,1.60
2023-01-21T23:37:02.330Z,2.10
2023-01-21T23:39:30.038Z,1.63
2023-01-21T23:41:57.729Z,1.93
2023-01-21T23:44:27.272Z,1.93
2023-01-21T23:46:55.107Z,1.93
2023-01-21T23:49:22.814Z,1.77
2023-01-21T23:51:50.549Z,2.20
2023-01-21T23:54:18.311Z,2.63
2023-01-21T23:56:46.065Z,2.80
2023-01-21T23:59:13.743Z,1.77
